createdAt,value
2022-08-02T00:07:53.489Z,99.9
2022-08-02T00:19:53.478Z,99.9
2022-08-02T00:31:53.475Z,99.9
2022-08-02T00:43:53.437Z,99.9
2022-08-02T00:55:54.028Z,99.9
2022-08-02T01:07:53.488Z,99.9
2022-08-02T01:19:53.422Z,99.9
2022-08-02T01:31:53.462Z,99.9
2022-08-02T01:43:53.458Z,99.9
2022-08-02T01:55:58.504Z,99.9
2022-08-02T02:07:53.447Z,99.9
2022-08-02T02:19:53.910Z,99.9
2022-08-02T02:31:53.556Z,99.9
2022-08-02T02:43:53.869Z,99.9
2022-08-02T02:56:01.619Z,99.9
2022-08-02T03:07:53.458Z,99.9
2022-08-02T03:19:53.475Z,99.9
2022-08-02T03:31:53.505Z,99.9
2022-08-02T03:43:53.463Z,99.9
2022-08-02T03:55:55.636Z,99.9
2022-08-02T04:08:33.960Z,99.9
2022-08-02T04:19:53.480Z,99.9
2022-08-02T04:31:53.439Z,99.9
2022-08-02T04:43:53.443Z,99.9
2022-08-02T04:55:53.468Z,99.9
2022-08-02T05:07:53.464Z,99.9
2022-08-02T05:19:53.445Z,99.9
2022-08-02T05:31:53.457Z,99.9
2022-08-02T05:43:53.449Z,99.9
2022-08-02T05:55:53.485Z,99.9
2022-08-02T06:07:53.441Z,99.9
2022-08-02T06:19:53.476Z,99.9
2022-08-02T06:31:53.481Z,99.9
2022-08-02T06:43:53.451Z,99.9
2022-08-02T06:55:53.465Z,99.9
2022-08-02T07:07:53.451Z,99.9
2022-08-02T07:19:53.461Z,99.9
2022-08-02T07:31:53.457Z,99.9
2022-08-02T07:43:53.451Z,99.9
2022-08-02T07:55:53.476Z,99.9
2022-08-02T08:07:53.462Z,99.5
2022-08-02T08:19:53.583Z,95.9
2022-08-02T08:31:53.448Z,92.8
2022-08-02T08:43:53.581Z,91.8
2022-08-02T08:55:53.450Z,89.9
2022-08-02T09:07:53.416Z,90.0
2022-08-02T09:19:53.457Z,90.0
2022-08-02T09:31:53.447Z,86.7
2022-08-02T09:44:05.220Z,88.4
2022-08-02T09:55:53.468Z,87.4
2022-08-02T10:07:53.441Z,86.2
2022-08-02T10:20:01.899Z,86.3
2022-08-02T10:31:53.458Z,85.6
2022-08-02T10:43:53.451Z,84.3
2022-08-02T10:55:53.472Z,83.4
2022-08-02T11:07:53.465Z,82.1
2022-08-02T11:19:53.461Z,83.5
2022-08-02T11:31:53.415Z,83.7
2022-08-02T11:43:53.438Z,79.8
2022-08-02T11:55:53.474Z,79.4
2022-08-02T12:07:53.490Z,77.4
2022-08-02T12:19:53.481Z,76.9
2022-08-02T12:31:57.656Z,78.2
2022-08-02T12:43:53.458Z,73.8
2022-08-02T12:56:01.108Z,77.0
2022-08-02T13:07:53.435Z,72.0
2022-08-02T13:19:53.520Z,74.6
2022-08-02T13:31:53.486Z,75.7
2022-08-02T13:43:57.816Z,71.3
2022-08-02T13:55:56.250Z,71.0
2022-08-02T14:07:53.466Z,69.3
2022-08-02T14:19:53.480Z,70.0
2022-08-02T14:31:53.915Z,70.4
2022-08-02T14:43:53.457Z,69.9
2022-08-02T14:55:53.467Z,68.2
2022-08-02T15:07:53.454Z,70.0
2022-08-02T15:19:58.118Z,67.9
2022-08-02T15:31:53.460Z,67.8
2022-08-02T15:44:00.654Z,67.9
2022-08-02T15:56:05.337Z,67.6
2022-08-02T16:07:53.461Z,66.4
2022-08-02T16:19:56.099Z,67.4
2022-08-02T16:31:53.432Z,66.8
2022-08-02T16:43:53.468Z,68.7
2022-08-02T16:55:53.481Z,66.9
2022-08-02T17:08:16.337Z,67.7
2022-08-02T17:19:53.475Z,67.5
2022-08-02T17:32:12.634Z,68.7
2022-08-02T17:43:53.483Z,67.5
2022-08-02T17:55:53.470Z,69.1
2022-08-02T18:07:56.760Z,70.1
2022-08-02T18:19:56.668Z,69.7
2022-08-02T18:31:53.468Z,76.6
2022-08-02T18:43:53.474Z,78.0
2022-08-02T18:55:59.900Z,81.5
2022-08-02T19:07:53.434Z,81.8
2022-08-02T19:19:53.477Z,81.9
2022-08-02T19:31:59.954Z,81.2
2022-08-02T19:44:23.453Z,81.8
2022-08-02T19:55:59.640Z,83.0
2022-08-02T20:07:56.197Z,83.9
2022-08-02T20:19:53.472Z,85.8
2022-08-02T20:31:53.498Z,88.3
2022-08-02T20:43:53.454Z,89.3
2022-08-02T20:55:53.469Z,90.6
2022-08-02T21:07:55.018Z,90.9
2022-08-02T21:19:53.463Z,92.0
2022-08-02T21:31:53.467Z,92.8
2022-08-02T21:43:53.474Z,93.5
2022-08-02T21:56:00.656Z,94.5
2022-08-02T22:07:53.464Z,96.8
2022-08-02T22:19:54.557Z,98.1
2022-08-02T22:31:53.457Z,99.2
2022-08-02T22:43:53.450Z,98.9
2022-08-02T22:55:53.456Z,98.9
2022-08-02T23:07:53.440Z,99.8
2022-08-02T23:19:53.455Z,99.9
2022-08-02T23:31:53.478Z,99.9
2022-08-02T23:44:12.580Z,99.9
2022-08-02T23:55:53.461Z,99.9
